Aérodrome :
LOGIN :

S'inscrire | Disclaimer

   EN    FR    IT 

 










Légende :    VFR   VFR Marginal   IFR   IFR Intensif   IFR Très Intensif
Visi : 
Plafond : 
>= 8 km
>= 3000ft
5 à 8 km
1000 à 3000 ft
1500m à 5 km
500 à 1000 ft
800 à 1500m
200 à 500 ft
< 800m
< 200 ft
Symboles :   Orages  Brouillard  Fortes neiges  Fortes précipitations  Vent > 20 kt
SIGMETs :   Divers  Orages  Givrage  Turbulence  Onde Orograph.  Cendres Volcan.







- Altitude de l'aérodrome : 1768 ft


LEHC - Huesca Pirineos

DERNIER METAR :
  • 211400Z 25004KT 170V300 9999 FEW025 14/05 Q1028

METARs EXPIRÉS :
  • 211330Z 24004KT 170V320 9999 FEW025 14/05 Q1029
  • 211300Z 20002KT 9999 FEW020 14/05 Q1029
  • 211230Z 18003KT CAVOK 13/05 Q1029
  • 211200Z 20001KT CAVOK 13/05 Q1029
  • 211130Z 22001KT CAVOK 12/05 Q1030

TAF TAF LEHC
Valide du 21 à 09h jusqu'au 22 à 09h UTC


210800Z 2109/2209 09007KT 9999 FEW030 TX17/2114Z TN03/2207Z
BECMG 2110/2112 19006KT
BECMG 2117/2120 06008KT
BECMG 2201/2203 33006KT
Pas de NOTAMs connus pour ce terrain.



MET'MAP, la Météo Aéronautique d'un coup d'oeil ! - Copyright ORBIFLY Décembre 2007 - Disclaimer

ORBIFLY MET'MAP TEAM :

Programmation & Développement : Alexandra Zaïnal
Conception & Développement : Baudouin d'Aumeries
Co-Programmation & Développement : Marc-Olivier Méhu
Soutien technique & logistique : Manuel Goepfert

Contact : metmap@orbifly.com




SOURCES & CREDITS :

   NOAA